Timeline UpdatesTrip UpdatesNews PostsPvt PostsTravel TipsAdmin PostsConv PostsFollowed PostsChat RequestsBlog PostsPNR Posts

Disclaimer
Search
 
 
Sat Aug 23, 2014 09:04:55 ISTHomeTrainsΣChainsAtlasPNRForumGalleryNewsFAQTripsMembersLoginFeedback
No Recent News for this Train
Other Trains in the News **new
Latest...
.
Tue Jul 29, 2014 (08:21AM)
⇐ Return Journey: Train# 12321

12322/Mumbai CST - Howrah Mail (via Allahabad)

Jul 01 2014 (9:11PM)
Change Departure Station:
Change Arrival Station:
Post a Train Travel TipPost a Train Travel Tip **new
Post a Comment/Question/Picture/VideoPost a Comment/Question/Picture/Video
Pantry/Catering
✓ Pantry Car Avbl
✓ Catering Avbl
Loco/Rake Reversals
ALD/Allahabad Junction (10);
RSA - Rake Sharing
No RSA.
Rake/Coach Composition
LOCO-HCPV-HCPV-SLR-GEN-GEN-S1-S2-S3-S4-S5-S6-S7-S8-S9-S10-S11-PC-B1-B2-B3-A1-HA1-GEN-SLR.; Entry-801279
Loco
CSTM-IGP: KYN WCAM-3 IGP-ET: BSL/ET WAP-4 ET-ALD: ET WDP-4/4B ALD-HWH: HWH / MGS...
Read more...
WAP-4.
News    PNR    Forum    Time-Table    Availability    Fare Chart    Map    Arr/Dep History    Trips    Gallery    ΣChains    X/O    Timeline    
Travel Time: 28h 40m    35 halts    Distance: 1611 km    Avg Speed: 56 km/hr
Type: SuperFast
Zone: ER/Eastern
Departs @ 07:05 (Avg 2h 5m late)
Platform# ???
SMTWTFS
Khandwa Junction/KNW 
Arrives @ 11:45 +1 night (Avg 4h 21m late)
Platform# 9
SMTWTFS
Kolkata Howrah Junction/HWH 

35 halts. 253 intermediate Stations between Khandwa Junction and Kolkata Howrah Junction

Show ALL intermediate Stations  Show Old Time-Table

#CodeStation NameX/OArrivesAvgDepartsAvgHaltPFDay#KmSpeedElevZoneAddress
1CSTMMumbai CST (18)  -21:25+2:0381-565.93510mCRMumbai 400001, Maharashtra
2DRMumbai Dadar Central (8)X  21:40+2:1021:45+2:075m51-557.2677mCRMumbai 400014, Maharashtra
3KYNKalyan Junction (8)  22:25+2:1622:30+2:185m41-512.85910mCRKalyan 421301, Maharashtra
4KSRAKasara (4)O  23:38+2:2323:40+2:182m11-445.325290mCRDist. Thane 421602, Maharashtra
5IGPIgatpuri (4)X00:15+2:1600:20+2:185m22-431.071589mCRIgatpuri 422403, Maharashtra
6DVLDevlali (3)X  00:58+2:2501:00+2:262m12-386.034561mCRDist. Nashik 422401, Maharashtra
7NKNasik Road (3)X  01:10+2:1901:15+2:185m22-380.379563mCRNashik 422101, Maharashtra
8MMRManmad Junction (6)X  02:10+2:1802:13+2:213m22-307.590580mCRManmad 423104, Maharashtra
9CSNChalisgaon Junction (3)X  02:58+2:3103:00+2:322m--2-240.096352mCRChalisgaon 424101, Maharashtra
10JLJalgaon Junction (4)O  03:58+2:3904:00+2:402m32-147.558213mCRJalgaon 425001, Maharashtra
11BSLBhusaval Junction (8)  04:25+2:3904:35+2:4110m32-123.376208mCRBhusaval 425201, Maharashtra
12BAUBurhanpur (2)XO  05:18+2:3805:20+2:382m22-68.987269mCRBurhanpur, Madhya Pradesh
13NPNRNepanagar (2)  05:38+2:4405:40+2:452m--2-42.632289mCRState Highway 27, Madhya Pradesh
14KNW»Khandwa Junction (5)»  07:00+2:0507:05+2:055m--20.0111310mCRKhandwa, Madhya Pradesh
15HDHarda (3)X  08:03+2:2108:05+2:212m22107.654289mWCRHarda, Madhya Pradesh
16ETItarsi Junction (7)X09:30+2:0309:40+2:1410m12183.479329mWCRItarsi 461111, Madhya Pradesh
17PPIPipariya (3)X  10:31+2:3610:33+2:372m12250.793338mWCRPiparia, Madhya Pradesh
18GARGadarwara (2)X  11:05+2:4611:07+2:482m12300.086352mWCRNarsinghpur, Madhya Pradesh
19KYKareli (2)X  11:27+2:4611:29+2:462m12328.559361mWCRKareli, Madhya Pradesh
20NUNarsinghpur (2)  11:45+2:5011:47+2:502m12344.475365mWCRNarsimhapur, Madhya Pradesh
21SRIDShridham (3)  12:12+2:5212:14+2:522m22375.557373mWCRShridham, Madhya Pradesh
22JBPJabalpur Junction (4)  13:10+2:3613:20+2:4110m42428.478416mWCRJabalpur, Madhya Pradesh
23KTEKatni Junction (6)  14:30+2:4914:35+2:495m42519.376387mWCRKatni, Madhya Pradesh
24MYRMaihar (3)X  15:25+2:5015:27+2:502m12582.249353mWCRMaihar Railway Station, Madhya Pradesh
25STASatna Junction (3)X  16:10+2:3616:20+2:3610m22617.644322mWCRSatna, Madhya Pradesh
26MKPManikpur Junction (4)X  18:07+2:0318:12+2:055m--2695.385250mNCRManikpur, Uttar Pradesh
27SRJShankargarh (3)  18:51+2:1018:53+2:102m--2750.333132mNCRShankargarh, Uttar Pradesh
28NYNNaini Junction (4)X  20:01-20:03-2m42787.71998mNCRAllahabad, Uttar Pradesh
29ALDAllahabad Junction (10)XO↵¶20:25+2:3520:45+3:0820m62794.866100mNCRAllahabad 211003, Uttar Pradesh
30BDLVindhyachal (3)X  22:00+3:3422:02+3:472m--2877.12788mNCRMirzapur, Uttar Pradesh
31MZPMirzapur (3)  22:18+3:5822:20+4:092m--2884.47288mNCRMirzapur, Uttar Pradesh
32CARChunar Junction (5)X  22:46+4:2322:48+4:252m32915.72685mNCRChunar Junction, Uttar Pradesh
33MGSMughal Sarai Junction (8)  00:02+4:2800:12+4:2810m23947.68683mECRMughalsarai 232101, Uttar Pradesh
34BBUBhabua Road (4)X  00:50+4:3500:52+4:362m--31002.19580mECR06187-222222, Bihar
35SSMSasaram Junction (4)  01:22+4:3701:24+4:382m331049.762111mECR06184-222051, Bihar
36DOSDehri On Sone (6)XO  01:41+4:3601:43+4:372m431067.377114mECRRohtas(06184-253154), Bihar
37AUBRAnugraha Narayan Road (4)  01:56+4:4301:58+4:432m331084.066104mECR06186-285271, Bihar
38GAYAGaya Junction (9)X  03:00+4:4603:05+4:495m331152.463117mECR0631-2220283, Bihar
39KQRKoderma Junction (7)  04:18+4:5104:20+4:532m--31228.883399mECR06534-222410 Koderma, Jharkhand
40HZDHazaribagh Road (3)X  04:55+4:5104:57+4:552m--31277.152330mECRHazaribagh, Jharkhand
41PNMEParasnath (5)  05:28+4:5005:30+4:532m--31304.222282mECRGiridih 06532-233419, Jharkhand
42GMONetaji SC Bose Gomoh Junction (6)X  06:20+4:2806:30+4:3010m231322.251239mECRGomoh, Jharkhand
43DHNDhanbad Junction (8)  07:05+4:1307:15+4:2210m131352.063235mECR2319801. Div. HQ ECR, Jharkhand
44BRRBarakar (2)  07:54+4:2607:56+4:262m--31393.054129mERDist. Bardhaman, West Bengal
45ASNAsansol Junction (7)XO  08:15+4:2808:30+4:2615m531410.272113mERDist - bardhaman, West Bengal
46RNGRaniGanj (4)X  08:45+4:3008:47+4:302m--31428.36692mERRaniganj, West Bengal
47DGRDurgapur (5)  09:09+4:1909:13+4:174m331452.69471mERDurgapur, West Bengal
48PANPanagarh (4)X  09:23+4:2509:25+4:252m--31468.26170mERKaksa, West Bengal
49BWNBarddhaman Junction (8)  10:12+4:2810:17+4:285m1231516.26434mERDist - Barddhaman, West Bengal
50HWH•Kolkata Howrah Junction (23)•  11:45+4:21-931610.5-10mERHowrah 711101, West Bengal
Scroll to Top
Scroll to Bottom